Herbert C Jackson — WL3972 — position and weather

sailwx.info

Track history (hours):
 
Tides and Currents Weather Stations Pressure Air Temp Water Temp Dewpoint Dewpoint Depression Visibility Wind Speed Wind Dir Waves Ship Positions

Herbert C Jackson

More information available from US FCC via Universal Licensing System and Coast Guard Vessel Documentation Center.

Last reported at 2014-Sep-23 17:00 UTC. Time now 2014-Sep-23 18:27 UTC.
Position N 46°42' W 086°24'.

Length 239 m; draft 6.2 m.

Type: Cargo ship. MMSI: 366904930.

Wind from 300 at 2 knots

Barometer 1024.0 mb
Air temperature 12.7 ° C
Water temperature 9.2 ° C

Date/timePositionNaut miles runAvg speedWind from/ knotsBaromVisibWave heightAir tempDewpointWater temp
2014-Sep-23 17:00N 46°42' W 086°24'3712.5 300 / 21024.0 12.7 9.2
2014-Sep-23 14:00N 46°48' W 085°30'1212.3 260 / 131021.7 10.5 9.1
2014-Sep-23 13:00N 46°48' W 085°12'1212.3 250 / 141021.0 11.1 10.3
2014-Sep-23 12:00N 46°48' W 084°54'1115.6 280 / 231020.0 12.8 11.0
2014-Sep-23 11:18N 46°38' W 084°48'1013.0
2014-Sep-23 10:33N 46°31' W 084°38'610.4
2014-Sep-23 10:00N 46°30' W 084°30'4 4.1 200 / 121020.0 11.2 12.1
2014-Sep-23 09:00N 46°30' W 084°24'3 3.4 230 / 21020.0 10.5 12.2
2014-Sep-23 08:07N 46°30' W 084°20'1 9.0
2014-Sep-23 08:00N 46°30' W 084°18'3 5.8 260 / 31019.4 11.6 12.1
2014-Sep-23 07:32N 46°27' W 084°17'8 8.3
2014-Sep-23 06:33N 46°20' W 084°11'8 6.9
2014-Sep-23 05:23N 46°13' W 084°07'1 2.8
2014-Sep-23 05:00N 46°12' W 084°06'2013.1 260 / 91019.1 12.8 12.2
2014-Sep-23 03:30N 45°55' W 083°52'814.8
2014-Sep-23 03:00N 45°48' W 083°48'1514.6 250 / 141019.4 13.5 11.8
2014-Sep-23 02:00N 45°36' W 083°36'4912.3 240 / 191019.1 13.2 10.9
2014-Sep-22 22:00N 44°54' W 083°00'1312.7 200 / 141019.8 13.0 10.7
2014-Sep-22 21:00N 44°42' W 082°54'1312.7 200 / 121020.1 12.6 12.2
2014-Sep-22 20:00N 44°30' W 082°48'1312.7 220 / 121020.4 12.0 13.5
2014-Sep-22 19:00N 44°18' W 082°42'2612.8 250 / 161020.4 10.8 12.3
2014-Sep-22 17:00N 43°54' W 082°30'2412.0 300 / 201020.4 9.7 14.0
2014-Sep-22 15:00N 43°30' W 082°30'1312.8 300 / 211020.4 10.1 14.2
2014-Sep-22 14:00N 43°18' W 082°24'1212.0 300 / 181020.1 10.0 15.2
2014-Sep-22 13:00N 43°06' W 082°24'13 6.4 300 / 231019.1 10.1 15.4
2014-Sep-22 11:00N 42°54' W 082°30'6 3.0 280 / 91018.8 9.3 15.5
2014-Sep-22 09:00N 42°48' W 082°30'1212.0 270 / 141016.7 9.0 15.5
2014-Sep-22 08:00N 42°36' W 082°30'1110.7 300 / 131016.7 9.1 15.8
2014-Sep-22 07:00N 42°30' W 082°42'2110.7 330 / 151016.2 10.2 15.7
2014-Sep-22 05:00N 42°18' W 083°06'18 9.0 330 / 131016.2 10.8 16.1
2014-Sep-22 03:00N 42°00' W 083°06'7 7.5 320 / 301013.7 11.5 16.4
2014-Sep-22 02:00N 41°54' W 083°00'1313.4 320 / 271011.7 13.1 17.6
2014-Sep-22 01:00N 41°54' W 082°42'1110.8 320 / 281010.0 13.9 18.2
2014-Sep-22 00:00N 41°48' W 082°30'1514.7 340 / 291008.3 14.6 18.0
2014-Sep-21 23:00N 41°54' W 082°12'9 8.9 320 / 341006.6 15.1 17.6
2014-Sep-21 22:00N 41°54' W 082°00'9211.5 280 / 341003.910.8 2.017.2 18.3
2014-Sep-21 14:00N 42°30' W 080°06'2311.5 210 / 341001.2 21.0 17.5
2014-Sep-21 12:00N 42°36' W 079°36'2512.6 180 / 281002.2 20.5 18.1
2014-Sep-21 10:00N 42°48' W 079°06'11 5.3 190 / 141005.2 20.8 17.9
2014-Sep-21 08:00N 42°54' W 078°54'0 0.0 220 / 71006.9 21.6 17.5
2014-Sep-21 06:00N 42°54' W 078°54'0 0.0 240 / 91008.3 21.7 17.5
2014-Sep-21 04:00N 42°54' W 078°54'0 0.0 230 / 121009.0 22.7 17.5
2014-Sep-21 02:00N 42°54' W 078°54'0 0.0 220 / 91010.7 22.3 17.5
2014-Sep-21 01:00N 42°54' W 078°54'0 0.0 230 / 71011.0 22.2 17.5
2014-Sep-20 23:00N 42°54' W 078°54'0 0.0 230 / 111011.0 23.9 17.5
2014-Sep-20 21:00N 42°54' W 078°54'0 0.0 240 / 61012.4 23.8 17.5
2014-Sep-20 20:00N 42°54' W 078°54'0 0.0 220 / 81012.7 23.5 17.4
2014-Sep-20 18:00N 42°54' W 078°54'0 0.0 220 / 101013.7 23.2 17.2
2014-Sep-20 16:00N 42°54' W 078°54'0 0.0 230 / 121016.1 22.0 17.2
2014-Sep-20 15:00N 42°54' W 078°54'0 0.0 210 / 111016.8 21.1 17.2
2014-Sep-20 13:00N 42°54' W 078°54'0 0.0 220 / 101017.1 19.3 17.3
2014-Sep-20 11:00N 42°54' W 078°54'6 6.0 210 / 121017.8 18.2 17.6
2014-Sep-20 10:00N 42°48' W 078°54'1313.2 190 / 241017.1 18.0 17.9
2014-Sep-20 09:00N 42°48' W 079°12'2512.6 180 / 241016.8 19.1 17.9
2014-Sep-20 07:00N 42°36' W 079°42'1110.7 190 / 271017.1 19.3 18.0
2014-Sep-20 06:00N 42°30' W 079°54'1514.6 180 / 241017.8 18.8 17.5
2014-Sep-20 05:00N 42°24' W 080°12'11112.3 180 / 211017.8 18.6 17.6
2014-Sep-19 20:00N 41°54' W 082°36'1313.4 070 / 121021.5 16.6 17.7
2014-Sep-19 19:00N 41°54' W 082°54'9 8.9 070 / 91021.8 15.7 18.2
2014-Sep-19 18:00N 41°54' W 083°06'4010.0 100 / 81022.9 14.2 16.3
2014-Sep-19 14:00N 42°30' W 082°42'7 7.5 070 / 61024.7 10.6 15.5
2014-Sep-19 13:00N 42°36' W 082°36'7 7.4 070 / 81024.5 9.0 15.3
2014-Sep-19 12:00N 42°42' W 082°30'1212.0 050 / 51024.5 7.2 15.2
2014-Sep-19 11:00N 42°54' W 082°30'7 7.4 100 / 61024.2 7.7 15.4
2014-Sep-19 10:00N 43°00' W 082°24'3015.0 120 / 81023.8 8.9 15.7
2014-Sep-19 08:00N 43°30' W 082°24'2412.2 110 / 121023.2 11.5 14.8
2014-Sep-19 06:00N 43°54' W 082°30'2612.8 080 / 141024.2 10.3 15.3
2014-Sep-19 04:00N 44°18' W 082°42'5112.7 070 / 151023.8 10.1 13.6
2014-Sep-19 00:00N 45°06' W 083°06'2713.6 100 / 101023.2 8.8 10.5
2014-Sep-18 22:00N 45°30' W 083°24'3312.8 100 / 101022.8 8.3 10.5
2014-Sep-18 19:25N 45°56' W 083°53'11 7.7
2014-Sep-18 18:00N 46°06' W 084°00'1514.6 100 / 61024.2 8.2 12.8
2014-Sep-18 17:00N 46°18' W 084°12'6 6.0 160 / 121023.5 7.6 12.3
2014-Sep-18 16:00N 46°24' W 084°12'7 7.3 110 / 141023.8 7.0 12.7
2014-Sep-18 15:00N 46°30' W 084°18'4 4.1 100 / 101023.8 6.1 12.7
2014-Sep-18 14:00N 46°30' W 084°24'0 0.0 080 / 71024.0 5.2 12.6
2014-Sep-18 13:00N 46°30' W 084°24'8 8.3 050 / 91023.4 4.0 12.7
2014-Sep-18 12:00N 46°30' W 084°36'3215.8 080 / 161022.4 3.7 12.6
2014-Sep-18 10:00N 46°54' W 085°06'1010.2 050 / 181021.7 5.3 9.8
2014-Sep-18 09:00N 47°00' W 085°18'1413.7 060 / 151021.3 5.7 10.0
2014-Sep-18 08:00N 47°06' W 085°36'   120 / 281021.0 5.9 7.2
2014-Sep-15 19:00N 46°54' W 085°06'1010.2 270 / 121017.9 8.7 7.9
2014-Sep-15 18:00N 46°48' W 084°54'1514.6 300 / 131017.6 9.7 12.7
2014-Sep-15 17:00N 46°36' W 084°42'14 6.9 300 / 191017.6 10.7 12.8
2014-Sep-15 15:00N 46°30' W 084°24'7 3.6 280 / 121017.6 11.2 13.0
2014-Sep-15 13:00N 46°24' W 084°18'1010.2 250 / 81018.1 9.2 12.9
2014-Sep-15 12:00N 46°18' W 084°06'5 7.1 260 / 111017.7 8.4 12.7
2014-Sep-15 11:15N 46°13' W 084°07'1 4.3
2014-Sep-15 11:00N 46°12' W 084°06'614.6 250 / 151017.4 10.4 12.8
2014-Sep-15 10:33N 46°07' W 084°01'814.6
2014-Sep-15 10:00N 46°00' W 083°54'2 4.6 240 / 131017.1 12.6 13.7
2014-Sep-15 09:33N 45°58' W 083°53'6 9.8
2014-Sep-15 09:00N 45°54' W 083°48'2713.5 240 / 291017.1 12.8 12.6
2014-Sep-15 07:00N 45°30' W 083°30'1514.7 220 / 211017.4 11.3 11.0
2014-Sep-15 06:00N 45°18' W 083°18'7 7.3 230 / 281018.1 11.4 10.7
2014-Sep-15 05:00N 45°12' W 083°12'2713.6 220 / 231018.8 12.2 10.4
2014-Sep-15 03:00N 44°48' W 082°54'1818.5 230 / 211020.1 14.3 13.4
2014-Sep-15 02:00N 44°30' W 082°48'19 9.3 240 / 241020.1 15.0 15.4
2014-Sep-15 00:00N 44°12' W 082°42'3115.6 210 / 141021.8 14.8 15.2
2014-Sep-14 22:00N 43°42' W 082°30'1212.0 220 / 121022.1 15.0 15.3
2014-Sep-14 21:00N 43°30' W 082°30'2412.2 220 / 131022.8 14.6 15.0
2014-Sep-14 19:00N 43°06' W 082°24'1212.0 260 / 121024.2 14.2 16.5
2014-Sep-14 18:00N 42°54' W 082°24'4 4.4 220 / 61025.2 14.6 16.2
2014-Sep-14 17:00N 42°54' W 082°30'0 0.0 210 / 51025.9 14.3 16.3
2014-Sep-14 16:00N 42°54' W 082°30'18 9.0 200 / 51026.9 14.4 16.2
2014-Sep-14 14:00N 42°36' W 082°30'1110.7 260 / 11027.6 10.8 16.3
2014-Sep-14 13:00N 42°30' W 082°42'1110.7 030 / 71027.0 10.9 16.2
2014-Sep-14 12:00N 42°24' W 082°54'11 5.4 320 / 101027.0 11.3 17.0
2014-Sep-14 10:00N 42°18' W 083°06'4 4.4 300 / 21027.0 8.6 18.8
2014-Sep-14 09:00N 42°18' W 083°12'0 0.0 340 / 21027.0 8.8 18.9
2014-Sep-14 08:00N 42°18' W 083°12'0 0.0 320 / 31027.0 8.2 19.8
2014-Sep-14 06:00N 42°18' W 083°12'0 0.0 330 / 31027.0 11.0 20.0
2014-Sep-14 05:00N 42°18' W 083°12'0 0.0 150 / 11027.4 11.5 19.7
2014-Sep-14 04:00N 42°18' W 083°12'4 2.2 120 / 11027.4 12.1 18.9
2014-Sep-14 02:00N 42°18' W 083°06'18 6.0 360 / 41027.4 12.1 19.3
2014-Sep-13 23:00N 42°30' W 082°48'1110.7 340 / 101026.0 13.0 16.4
2014-Sep-13 22:00N 42°36' W 082°36'7 7.4 300 / 41026.0 12.5 16.4
2014-Sep-13 21:00N 42°42' W 082°30'19 9.3 290 / 61025.2 12.5 16.5
2014-Sep-13 19:00N 43°00' W 082°24'1212.0 310 / 161024.2 11.8 16.6
2014-Sep-13 18:00N 43°12' W 082°24'   290 / 221023.210.8 1.512.0 17.0
Track history (hours):
 
Tides and Currents Weather Stations Pressure Air Temp Water Temp Dewpoint Dewpoint Depression Visibility Wind Speed Wind Dir Waves Ship Positions

Herbert C Jackson

More information available from US FCC via Universal Licensing System and Coast Guard Vessel Documentation Center.

Last reported at 2014-Sep-23 17:00 UTC. Time now 2014-Sep-23 18:27 UTC.
Position N 46°42' W 086°24'.

Length 239 m; draft 6.2 m.

Type: Cargo ship. MMSI: 366904930.

Wind from 300 at 2 knots

Barometer 1024.0 mb
Air temperature 12.7 ° C
Water temperature 9.2 ° C

Date/timePositionNaut miles runAvg speedWind from/ knotsBaromVisibWave heightAir tempDewpointWater temp
2014-Sep-23 17:00N 46°42' W 086°24'3712.5 300 / 21024.0 12.7 9.2
2014-Sep-23 14:00N 46°48' W 085°30'1212.3 260 / 131021.7 10.5 9.1
2014-Sep-23 13:00N 46°48' W 085°12'1212.3 250 / 141021.0 11.1 10.3
2014-Sep-23 12:00N 46°48' W 084°54'1115.6 280 / 231020.0 12.8 11.0
2014-Sep-23 11:18N 46°38' W 084°48'1013.0
2014-Sep-23 10:33N 46°31' W 084°38'610.4
2014-Sep-23 10:00N 46°30' W 084°30'4 4.1 200 / 121020.0 11.2 12.1
2014-Sep-23 09:00N 46°30' W 084°24'3 3.4 230 / 21020.0 10.5 12.2
2014-Sep-23 08:07N 46°30' W 084°20'1 9.0
2014-Sep-23 08:00N 46°30' W 084°18'3 5.8 260 / 31019.4 11.6 12.1
2014-Sep-23 07:32N 46°27' W 084°17'8 8.3
2014-Sep-23 06:33N 46°20' W 084°11'8 6.9
2014-Sep-23 05:23N 46°13' W 084°07'1 2.8
2014-Sep-23 05:00N 46°12' W 084°06'2013.1 260 / 91019.1 12.8 12.2
2014-Sep-23 03:30N 45°55' W 083°52'814.8
2014-Sep-23 03:00N 45°48' W 083°48'1514.6 250 / 141019.4 13.5 11.8
2014-Sep-23 02:00N 45°36' W 083°36'4912.3 240 / 191019.1 13.2 10.9
2014-Sep-22 22:00N 44°54' W 083°00'1312.7 200 / 141019.8 13.0 10.7
2014-Sep-22 21:00N 44°42' W 082°54'1312.7 200 / 121020.1 12.6 12.2
2014-Sep-22 20:00N 44°30' W 082°48'1312.7 220 / 121020.4 12.0 13.5
2014-Sep-22 19:00N 44°18' W 082°42'2612.8 250 / 161020.4 10.8 12.3
2014-Sep-22 17:00N 43°54' W 082°30'2412.0 300 / 201020.4 9.7 14.0
2014-Sep-22 15:00N 43°30' W 082°30'1312.8 300 / 211020.4 10.1 14.2
2014-Sep-22 14:00N 43°18' W 082°24'1212.0 300 / 181020.1 10.0 15.2
2014-Sep-22 13:00N 43°06' W 082°24'13 6.4 300 / 231019.1 10.1 15.4
2014-Sep-22 11:00N 42°54' W 082°30'6 3.0 280 / 91018.8 9.3 15.5
2014-Sep-22 09:00N 42°48' W 082°30'1212.0 270 / 141016.7 9.0 15.5
2014-Sep-22 08:00N 42°36' W 082°30'1110.7 300 / 131016.7 9.1 15.8
2014-Sep-22 07:00N 42°30' W 082°42'2110.7 330 / 151016.2 10.2 15.7
2014-Sep-22 05:00N 42°18' W 083°06'18 9.0 330 / 131016.2 10.8 16.1
2014-Sep-22 03:00N 42°00' W 083°06'7 7.5 320 / 301013.7 11.5 16.4
2014-Sep-22 02:00N 41°54' W 083°00'1313.4 320 / 271011.7 13.1 17.6
2014-Sep-22 01:00N 41°54' W 082°42'1110.8 320 / 281010.0 13.9 18.2
2014-Sep-22 00:00N 41°48' W 082°30'1514.7 340 / 291008.3 14.6 18.0
2014-Sep-21 23:00N 41°54' W 082°12'9 8.9 320 / 341006.6 15.1 17.6
2014-Sep-21 22:00N 41°54' W 082°00'9211.5 280 / 341003.910.8 2.017.2 18.3
2014-Sep-21 14:00N 42°30' W 080°06'2311.5 210 / 341001.2 21.0 17.5
2014-Sep-21 12:00N 42°36' W 079°36'2512.6 180 / 281002.2 20.5 18.1
2014-Sep-21 10:00N 42°48' W 079°06'11 5.3 190 / 141005.2 20.8 17.9
2014-Sep-21 08:00N 42°54' W 078°54'0 0.0 220 / 71006.9 21.6 17.5
2014-Sep-21 06:00N 42°54' W 078°54'0 0.0 240 / 91008.3 21.7 17.5
2014-Sep-21 04:00N 42°54' W 078°54'0 0.0 230 / 121009.0 22.7 17.5
2014-Sep-21 02:00N 42°54' W 078°54'0 0.0 220 / 91010.7 22.3 17.5
2014-Sep-21 01:00N 42°54' W 078°54'0 0.0 230 / 71011.0 22.2 17.5
2014-Sep-20 23:00N 42°54' W 078°54'0 0.0 230 / 111011.0 23.9 17.5
2014-Sep-20 21:00N 42°54' W 078°54'0 0.0 240 / 61012.4 23.8 17.5
2014-Sep-20 20:00N 42°54' W 078°54'0 0.0 220 / 81012.7 23.5 17.4
2014-Sep-20 18:00N 42°54' W 078°54'0 0.0 220 / 101013.7 23.2 17.2
2014-Sep-20 16:00N 42°54' W 078°54'0 0.0 230 / 121016.1 22.0 17.2
2014-Sep-20 15:00N 42°54' W 078°54'0 0.0 210 / 111016.8 21.1 17.2
2014-Sep-20 13:00N 42°54' W 078°54'0 0.0 220 / 101017.1 19.3 17.3
2014-Sep-20 11:00N 42°54' W 078°54'6 6.0 210 / 121017.8 18.2 17.6
2014-Sep-20 10:00N 42°48' W 078°54'1313.2 190 / 241017.1 18.0 17.9
2014-Sep-20 09:00N 42°48' W 079°12'2512.6 180 / 241016.8 19.1 17.9
2014-Sep-20 07:00N 42°36' W 079°42'1110.7 190 / 271017.1 19.3 18.0
2014-Sep-20 06:00N 42°30' W 079°54'1514.6 180 / 241017.8 18.8 17.5
2014-Sep-20 05:00N 42°24' W 080°12'11112.3 180 / 211017.8 18.6 17.6
2014-Sep-19 20:00N 41°54' W 082°36'1313.4 070 / 121021.5 16.6 17.7
2014-Sep-19 19:00N 41°54' W 082°54'9 8.9 070 / 91021.8 15.7 18.2
2014-Sep-19 18:00N 41°54' W 083°06'4010.0 100 / 81022.9 14.2 16.3
2014-Sep-19 14:00N 42°30' W 082°42'7 7.5 070 / 61024.7 10.6 15.5
2014-Sep-19 13:00N 42°36' W 082°36'7 7.4 070 / 81024.5 9.0 15.3
2014-Sep-19 12:00N 42°42' W 082°30'1212.0 050 / 51024.5 7.2 15.2
2014-Sep-19 11:00N 42°54' W 082°30'7 7.4 100 / 61024.2 7.7 15.4
2014-Sep-19 10:00N 43°00' W 082°24'3015.0 120 / 81023.8 8.9 15.7
2014-Sep-19 08:00N 43°30' W 082°24'2412.2 110 / 121023.2 11.5 14.8
2014-Sep-19 06:00N 43°54' W 082°30'2612.8 080 / 141024.2 10.3 15.3
2014-Sep-19 04:00N 44°18' W 082°42'5112.7 070 / 151023.8 10.1 13.6
2014-Sep-19 00:00N 45°06' W 083°06'2713.6 100 / 101023.2 8.8 10.5
2014-Sep-18 22:00N 45°30' W 083°24'3312.8 100 / 101022.8 8.3 10.5
2014-Sep-18 19:25N 45°56' W 083°53'11 7.7
2014-Sep-18 18:00N 46°06' W 084°00'1514.6 100 / 61024.2 8.2 12.8
2014-Sep-18 17:00N 46°18' W 084°12'6 6.0 160 / 121023.5 7.6 12.3
2014-Sep-18 16:00N 46°24' W 084°12'7 7.3 110 / 141023.8 7.0 12.7
2014-Sep-18 15:00N 46°30' W 084°18'4 4.1 100 / 101023.8 6.1 12.7
2014-Sep-18 14:00N 46°30' W 084°24'0 0.0 080 / 71024.0 5.2 12.6
2014-Sep-18 13:00N 46°30' W 084°24'8 8.3 050 / 91023.4 4.0 12.7
2014-Sep-18 12:00N 46°30' W 084°36'3215.8 080 / 161022.4 3.7 12.6
2014-Sep-18 10:00N 46°54' W 085°06'1010.2 050 / 181021.7 5.3 9.8
2014-Sep-18 09:00N 47°00' W 085°18'1413.7 060 / 151021.3 5.7 10.0
2014-Sep-18 08:00N 47°06' W 085°36'   120 / 281021.0 5.9 7.2
2014-Sep-15 19:00N 46°54' W 085°06'1010.2 270 / 121017.9 8.7 7.9
2014-Sep-15 18:00N 46°48' W 084°54'1514.6 300 / 131017.6 9.7 12.7
2014-Sep-15 17:00N 46°36' W 084°42'14 6.9 300 / 191017.6 10.7 12.8
2014-Sep-15 15:00N 46°30' W 084°24'7 3.6 280 / 121017.6 11.2 13.0
2014-Sep-15 13:00N 46°24' W 084°18'1010.2 250 / 81018.1 9.2 12.9
2014-Sep-15 12:00N 46°18' W 084°06'5 7.1 260 / 111017.7 8.4 12.7
2014-Sep-15 11:15N 46°13' W 084°07'1 4.3
2014-Sep-15 11:00N 46°12' W 084°06'614.6 250 / 151017.4 10.4 12.8
2014-Sep-15 10:33N 46°07' W 084°01'814.6
2014-Sep-15 10:00N 46°00' W 083°54'2 4.6 240 / 131017.1 12.6 13.7
2014-Sep-15 09:33N 45°58' W 083°53'6 9.8
2014-Sep-15 09:00N 45°54' W 083°48'2713.5 240 / 291017.1 12.8 12.6
2014-Sep-15 07:00N 45°30' W 083°30'1514.7 220 / 211017.4 11.3 11.0
2014-Sep-15 06:00N 45°18' W 083°18'7 7.3 230 / 281018.1 11.4 10.7
2014-Sep-15 05:00N 45°12' W 083°12'2713.6 220 / 231018.8 12.2 10.4
2014-Sep-15 03:00N 44°48' W 082°54'1818.5 230 / 211020.1 14.3 13.4
2014-Sep-15 02:00N 44°30' W 082°48'19 9.3 240 / 241020.1 15.0 15.4
2014-Sep-15 00:00N 44°12' W 082°42'3115.6 210 / 141021.8 14.8 15.2
2014-Sep-14 22:00N 43°42' W 082°30'1212.0 220 / 121022.1 15.0 15.3
2014-Sep-14 21:00N 43°30' W 082°30'2412.2 220 / 131022.8 14.6 15.0
2014-Sep-14 19:00N 43°06' W 082°24'1212.0 260 / 121024.2 14.2 16.5
2014-Sep-14 18:00N 42°54' W 082°24'4 4.4 220 / 61025.2 14.6 16.2
2014-Sep-14 17:00N 42°54' W 082°30'0 0.0 210 / 51025.9 14.3 16.3
2014-Sep-14 16:00N 42°54' W 082°30'18 9.0 200 / 51026.9 14.4 16.2
2014-Sep-14 14:00N 42°36' W 082°30'1110.7 260 / 11027.6 10.8 16.3
2014-Sep-14 13:00N 42°30' W 082°42'1110.7 030 / 71027.0 10.9 16.2
2014-Sep-14 12:00N 42°24' W 082°54'11 5.4 320 / 101027.0 11.3 17.0
2014-Sep-14 10:00N 42°18' W 083°06'4 4.4 300 / 21027.0 8.6 18.8
2014-Sep-14 09:00N 42°18' W 083°12'0 0.0 340 / 21027.0 8.8 18.9
2014-Sep-14 08:00N 42°18' W 083°12'0 0.0 320 / 31027.0 8.2 19.8
2014-Sep-14 06:00N 42°18' W 083°12'0 0.0 330 / 31027.0 11.0 20.0
2014-Sep-14 05:00N 42°18' W 083°12'0 0.0 150 / 11027.4 11.5 19.7
2014-Sep-14 04:00N 42°18' W 083°12'4 2.2 120 / 11027.4 12.1 18.9
2014-Sep-14 02:00N 42°18' W 083°06'18 6.0 360 / 41027.4 12.1 19.3
2014-Sep-13 23:00N 42°30' W 082°48'1110.7 340 / 101026.0 13.0 16.4
2014-Sep-13 22:00N 42°36' W 082°36'7 7.4 300 / 41026.0 12.5 16.4
2014-Sep-13 21:00N 42°42' W 082°30'19 9.3 290 / 61025.2 12.5 16.5
2014-Sep-13 19:00N 43°00' W 082°24'1212.0 310 / 161024.2 11.8 16.6
2014-Sep-13 18:00N 43°12' W 082°24'   290 / 221023.210.8 1.512.0 17.0

Dump ship's entire track history